METAR Data
IDs: Format: Raw Decoded Include TAF

Data at: 0245 UTC 10 Dec 2022

KS33 100235Z AUTO 16019G30KT 10SM BKN043 OVC049 02/M01 A2963 RMK AO2
KS33 100215Z AUTO 15023G31KT 10SM BKN043 OVC049 02/00 A2964 RMK AO2
KS33 100155Z AUTO 14020G27KT 10SM OVC041 02/00 A2965 RMK AO2
KS33 100135Z AUTO 15021G26KT 10SM -RA BKN034 OVC044 01/00 A2966 RMK AO2
KS33 100115Z AUTO 15022G27KT 10SM -RA SCT010 BKN023 OVC031 01/00 A2968 RMK AO2
KS33 100055Z AUTO 15021G29KT 7SM -SN SCT014 OVC020 00/00 A2970 RMK AO2 P0001
KS33 100035Z AUTO 15020G26KT 7SM -RA SCT012 OVC022 00/00 A2972 RMK AO2
KS33 100015Z AUTO 15020G26KT 10SM RA SCT024 OVC031 01/00 A2974 RMK AO2
KS33 092355Z AUTO 15017G29KT 10SM -DZ OVC030 02/M01 A2975 RMK AO2
KS33 092335Z AUTO 16014G24KT 10SM BKN035 OVC045 03/M03 A2976 RMK AO2
KS33 092315Z AUTO 15017G23KT 10SM SCT046 BKN060 OVC070 03/M03 A2976 RMK AO2
KS33 092255Z AUTO 15017G26KT 10SM SCT060 OVC070 03/M03 A2977 RMK AO2
KS33 092235Z AUTO 15017G23KT 10SM OVC060 04/M03 A2978 RMK AO2
KS33 092215Z AUTO 16015G21KT 10SM BKN070 OVC090 04/M03 A2978 RMK AO2
KS33 092155Z AUTO 15020G25KT 10SM SCT070 BKN090 BKN120 04/M03 A2979 RMK AO2
KS33 092135Z AUTO 15016G20KT 10SM SCT055 SCT120 05/M03 A2981 RMK AO2
KS33 092115Z AUTO 15017G24KT 10SM OVC055 05/M03 A2983 RMK AO2
KS33 092055Z AUTO 14015G19KT 10SM BKN060 BKN065 05/M03 A2985 RMK AO2
KS33 092035Z AUTO 15014KT 10SM OVC060 03/M03 A2986 RMK AO2
KS33 092015Z AUTO 15013KT 10SM OVC050 03/M03 A2987 RMK AO2
KS33 091955Z AUTO 16013G19KT 10SM OVC050 03/M03 A2989 RMK AO2
KS33 091935Z AUTO 16011G19KT 10SM OVC055 02/M04 A2990 RMK AO2
KS33 091915Z AUTO 15014G19KT 10SM OVC055 02/M04 A2992 RMK AO2
KS33 091855Z AUTO 15013G19KT 10SM OVC055 02/M04 A2993 RMK AO2
KS33 091835Z AUTO 15012KT 10SM SCT050 OVC065 02/M04 A2994 RMK AO2
KS33 091815Z AUTO 10SM SCT065 OVC070 02/M04 A2995 RMK AO2
KS33 091755Z AUTO 14009G16KT 10SM SCT055 BKN065 OVC075 01/M03 A2996 RMK AO2
KS33 091735Z AUTO 15015KT 10SM SCT048 BKN050 BKN080 01/M03 A2995 RMK AO2
KS33 091715Z AUTO 15012G15KT 10SM BKN048 OVC055 01/M03 A2996 RMK AO2
KS33 091655Z AUTO 16009G15KT 10SM BKN050 OVC060 01/M03 A2998 RMK AO2
KS33 091635Z AUTO 17010KT 10SM SCT065 BKN070 OVC080 00/M03 A2997 RMK AO2
KS33 091615Z AUTO 17008KT 10SM SCT080 00/M03 A2996 RMK AO2
KS33 091555Z AUTO 16008KT 10SM SCT039 SCT055 M01/M04 A2997 RMK AO2
KS33 091535Z AUTO 16008KT 10SM SCT049 BKN055 M01/M05 A2997 RMK AO2
KS33 091515Z AUTO 16007KT 10SM BKN055 OVC075 00/M05 A2998 RMK AO2
KS33 091455Z AUTO 17008KT 10SM SCT050 SCT065 BKN080 M01/M05 A2998 RMK AO2
KS33 091435Z AUTO 17007KT 10SM SCT050 SCT065 SCT080 M01/M05 A2997 RMK AO2
KS33 091415Z AUTO 14008KT 10SM SCT050 SCT080 SCT100 M01/M05 A2997 RMK AO2
KS33 091355Z AUTO 18008KT 10SM SCT050 SCT070 BKN110 M01/M05 A2997 RMK AO2
KS33 091335Z AUTO 19005KT 10SM SCT070 BKN090 OVC110 00/M05 A2997 RMK AO2
KS33 091315Z AUTO 19006KT 10SM SCT080 BKN095 OVC110 00/M05 A2997 RMK AO2
KS33 091255Z AUTO 16008KT 10SM BKN120 00/M04 A2997 RMK AO2
KS33 091235Z AUTO 16007KT 10SM SCT120 M01/M05 A2998 RMK AO2
KS33 091215Z AUTO 16008KT 10SM CLR 00/M05 A2998 RMK AO2
KS33 091155Z AUTO 15009KT 10SM SCT047 00/M04 A2998 RMK AO2
KS33 091135Z AUTO 16007KT 10SM BKN047 BKN050 00/M03 A2998 RMK AO2
KS33 091115Z AUTO 18007KT 10SM BKN050 BKN065 BKN090 00/M03 A2998 RMK AO2
KS33 091055Z AUTO 20009KT 10SM SCT055 BKN065 OVC090 00/M03 A2999 RMK AO2
KS33 091035Z AUTO 18008KT 10SM SCT030 BKN048 OVC085 00/M03 A2999 RMK AO2
KS33 091015Z AUTO 17009KT 10SM BKN043 BKN049 OVC060 00/M03 A2998 RMK AO2
KS33 090955Z AUTO 18011KT 10SM OVC045 01/M02 A2998 RMK AO2
KS33 090935Z AUTO 18011KT 10SM BKN043 OVC050 01/M02 A2996 RMK AO2
KS33 090915Z AUTO 19007KT 10SM BKN043 OVC100 01/M02 A2996 RMK AO2
KS33 090855Z AUTO 18008KT 10SM SCT043 SCT070 OVC100 00/M02 A2996 RMK AO2
KS33 090835Z AUTO 18007KT 10SM BKN090 BKN110 00/M02 A2996 RMK AO2
KS33 090815Z AUTO 17008KT 10SM BKN100 BKN120 00/M03 A2996 RMK AO2
KS33 090755Z AUTO 17009KT 10SM SCT110 01/M03 A2996 RMK AO2
KS33 090735Z AUTO 19006KT 10SM CLR 01/M03 A2995 RMK AO2
KS33 090715Z AUTO 20009KT 10SM CLR 01/M02 A2995 RMK AO2
KS33 090655Z AUTO 17006KT 10SM SCT100 00/M02 A2995 RMK AO2
KS33 090635Z AUTO 17008KT 10SM CLR 00/M02 A2995 RMK AO2
KS33 090615Z AUTO 18008KT 10SM CLR 01/M02 A2994 RMK AO2
KS33 090555Z AUTO 17005KT 10SM SCT080 00/M02 A2995 RMK AO2
KS33 090535Z AUTO 14005KT 10SM CLR 00/M02 A2995 RMK AO2
KS33 090515Z AUTO 15004KT 10SM SCT026 BKN110 00/M01 A2995 RMK AO2
KS33 090455Z AUTO 13005KT 10SM SCT028 SCT039 BKN050 00/00 A2995 RMK AO2
KS33 090435Z AUTO 00000KT 10SM SCT039 SCT045 OVC055 01/00 A2994 RMK AO2
KS33 090415Z AUTO 00000KT 10SM SCT023 BKN041 OVC065 01/00 A2994 RMK AO2
KS33 090355Z AUTO 25005KT 10SM BKN025 OVC033 01/00 A2994 RMK AO2
KS33 090335Z AUTO 29005KT 10SM SCT027 BKN033 OVC070 01/00 A2993 RMK AO2
KS33 090315Z AUTO 00000KT 10SM SCT036 BKN048 OVC070 01/00 A2993 RMK AO2
KS33 090255Z AUTO 29004KT 10SM SCT038 BKN046 OVC050 01/00 A2992 RMK AO2
KS33 090235Z AUTO 28005KT 10SM SCT035 OVC044 02/00 A2992 RMK AO2
KS33 090215Z AUTO 00000KT 10SM SCT029 SCT034 OVC042 02/00 A2992 RMK AO2
KS33 090155Z AUTO 28005KT 10SM SCT029 OVC044 02/00 A2992 RMK AO2
KS33 090135Z AUTO 27005KT 10SM OVC046 04/00 A2991 RMK AO2
KS33 090115Z AUTO 18014G20KT 10SM SCT032 OVC046 04/00 A2990 RMK AO2
KS33 090055Z AUTO 21005KT 10SM -DZ BKN032 BKN040 OVC050 03/00 A2991 RMK AO2
KS33 090035Z AUTO 24006G19KT 10SM DZ SCT034 OVC040 04/00 A2990 RMK AO2
KS33 090015Z AUTO 10SM BKN043 OVC049 04/00 A2990 RMK AO2
KS33 082355Z AUTO 18008KT 10SM BKN049 OVC060 04/00 A2989 RMK AO2
KS33 082335Z AUTO 20006KT 10SM BKN049 OVC060 04/00 A2989 RMK AO2
KS33 082315Z AUTO 16016G20KT 10SM SCT047 OVC060 04/00 A2988 RMK AO2
KS33 082255Z AUTO 16012G22KT 10SM SCT065 OVC070 03/00 A2988 RMK AO2
KS33 082235Z AUTO 16014G23KT 10SM OVC065 03/00 A2988 RMK AO2
KS33 082215Z AUTO 15019G25KT 10SM SCT050 BKN060 OVC095 03/00 A2988 RMK AO2
KS33 082155Z AUTO 15016G22KT 10SM SCT043 BKN050 OVC090 03/00 A2989 RMK AO2
KS33 082135Z AUTO 15016G21KT 10SM OVC050 03/00 A2991 RMK AO2
KS33 082115Z AUTO 15017KT 10SM OVC050 03/00 A2992 RMK AO2
KS33 082055Z AUTO 15018G22KT 10SM BKN050 OVC060 03/00 A2992 RMK AO2
KS33 082035Z AUTO 10SM SCT050 BKN060 OVC070 03/00 A2993 RMK AO2
KS33 082015Z AUTO 15013G21KT 10SM OVC065 03/00 A2994 RMK AO2
KS33 081955Z AUTO 15015G21KT 10SM BKN055 OVC065 03/00 A2995 RMK AO2
KS33 081935Z AUTO 15017G24KT 10SM SCT060 OVC070 03/M01 A2996 RMK AO2
KS33 081915Z AUTO 15016G21KT 10SM SCT055 OVC070 02/00 A2997 RMK AO2
KS33 081855Z AUTO 14016G22KT 10SM OVC065 02/00 A2998 RMK AO2
KS33 081835Z AUTO 14016G22KT 10SM OVC060 02/00 A2999 RMK AO2
KS33 081815Z AUTO 14015KT 10SM SCT041 SCT049 OVC060 02/00 A3000 RMK AO2
KS33 081755Z AUTO 14018G23KT 10SM SCT034 BKN041 OVC048 02/00 A3001 RMK AO2
KS33 081735Z AUTO 14018G25KT 10SM BKN036 OVC043 02/M01 A3002 RMK AO2
KS33 081715Z AUTO 15016G26KT 10SM BKN036 OVC042 02/M02 A3002 RMK AO2
KS33 081655Z AUTO 16017G23KT 10SM SCT036 BKN044 OVC050 03/M03 A3002 RMK AO2
KS33 081635Z AUTO 16013G23KT 10SM BKN050 OVC060 02/M03 A3002 RMK AO2
KS33 081615Z AUTO 15013G22KT 10SM SCT050 BKN060 OVC080 02/M03 A3001 RMK AO2
KS33 081555Z AUTO 15018G23KT 10SM SCT070 BKN080 OVC090 02/M03 A3001 RMK AO2 P0001
KS33 081535Z AUTO 16016G22KT 10SM BKN060 OVC075 02/M03 A3003 RMK AO2
KS33 081515Z AUTO 17019G24KT 10SM SCT060 BKN070 BKN085 02/M03 A3003 RMK AO2
KS33 081455Z AUTO 17016G21KT 10SM SCT055 BKN070 BKN085 01/M03 A3002 RMK AO2 P0001